sensor_id;sensor_type;location;lat;lon;timestamp;temperature;humidity
69162;DHT22;56269;51.738;21.652;2023-02-19T00:01:27;2.33;97.77
69162;DHT22;56269;51.738;21.652;2023-02-19T00:03:55;2.31;97.89
69162;DHT22;56269;51.738;21.652;2023-02-19T00:06:23;2.27;98.01
69162;DHT22;56269;51.738;21.652;2023-02-19T00:08:50;2.24;97.92
69162;DHT22;56269;51.738;21.652;2023-02-19T00:11:18;2.17;98.33
69162;DHT22;56269;51.738;21.652;2023-02-19T00:13:46;2.13;98.37
69162;DHT22;56269;51.738;21.652;2023-02-19T00:16:16;2.11;97.84
69162;DHT22;56269;51.738;21.652;2023-02-19T00:18:44;2.09;98.01
69162;DHT22;56269;51.738;21.652;2023-02-19T00:21:11;2.06;97.84
69162;DHT22;56269;51.738;21.652;2023-02-19T00:23:37;2.00;97.85
69162;DHT22;56269;51.738;21.652;2023-02-19T00:26:09;1.93;97.76
69162;DHT22;56269;51.738;21.652;2023-02-19T00:28:36;1.89;97.68
69162;DHT22;56269;51.738;21.652;2023-02-19T00:31:25;1.80;97.92
69162;DHT22;56269;51.738;21.652;2023-02-19T00:33:53;1.72;97.74
69162;DHT22;56269;51.738;21.652;2023-02-19T00:36:20;1.63;97.94
69162;DHT22;56269;51.738;21.652;2023-02-19T00:38:47;1.58;97.82
69162;DHT22;56269;51.738;21.652;2023-02-19T00:41:15;1.55;97.78
69162;DHT22;56269;51.738;21.652;2023-02-19T00:43:53;1.48;98.02
69162;DHT22;56269;51.738;21.652;2023-02-19T00:48:48;1.41;97.83
69162;DHT22;56269;51.738;21.652;2023-02-19T00:51:15;1.36;98.01
69162;DHT22;56269;51.738;21.652;2023-02-19T00:53:41;1.31;98.10
69162;DHT22;56269;51.738;21.652;2023-02-19T00:56:08;1.41;97.35
69162;DHT22;56269;51.738;21.652;2023-02-19T00:58:37;1.41;97.16
69162;DHT22;56269;51.738;21.652;2023-02-19T01:01:04;1.41;97.16
69162;DHT22;56269;51.738;21.652;2023-02-19T01:03:32;1.42;97.18
69162;DHT22;56269;51.738;21.652;2023-02-19T01:05:59;1.49;96.26
69162;DHT22;56269;51.738;21.652;2023-02-19T01:08:25;1.45;96.37
69162;DHT22;56269;51.738;21.652;2023-02-19T01:10:52;1.45;96.11
69162;DHT22;56269;51.738;21.652;2023-02-19T01:13:18;1.51;95.97
69162;DHT22;56269;51.738;21.652;2023-02-19T01:15:45;1.54;95.44
69162;DHT22;56269;51.738;21.652;2023-02-19T01:18:11;1.59;94.95
69162;DHT22;56269;51.738;21.652;2023-02-19T01:20:40;1.56;94.92
69162;DHT22;56269;51.738;21.652;2023-02-19T01:23:12;1.55;94.92
69162;DHT22;56269;51.738;21.652;2023-02-19T01:25:40;1.65;94.20
69162;DHT22;56269;51.738;21.652;2023-02-19T01:28:10;1.66;94.11
69162;DHT22;56269;51.738;21.652;2023-02-19T01:30:37;1.70;93.43
69162;DHT22;56269;51.738;21.652;2023-02-19T01:33:06;1.79;93.20
69162;DHT22;56269;51.738;21.652;2023-02-19T01:35:33;1.93;93.10
69162;DHT22;56269;51.738;21.652;2023-02-19T01:38:00;1.92;93.61
69162;DHT22;56269;51.738;21.652;2023-02-19T01:40:26;1.93;94.28
69162;DHT22;56269;51.738;21.652;2023-02-19T01:42:52;1.89;95.02
69162;DHT22;56269;51.738;21.652;2023-02-19T01:47:56;1.92;95.48
69162;DHT22;56269;51.738;21.652;2023-02-19T01:50:26;1.90;95.61
69162;DHT22;56269;51.738;21.652;2023-02-19T01:52:53;2.00;94.50
69162;DHT22;56269;51.738;21.652;2023-02-19T01:55:21;1.99;94.53
69162;DHT22;56269;51.738;21.652;2023-02-19T01:57:50;1.95;95.06
69162;DHT22;56269;51.738;21.652;2023-02-19T02:00:17;1.93;95.14
69162;DHT22;56269;51.738;21.652;2023-02-19T02:02:48;1.93;95.30
69162;DHT22;56269;51.738;21.652;2023-02-19T02:05:24;2.03;95.06
69162;DHT22;56269;51.738;21.652;2023-02-19T02:07:53;1.97;95.37
69162;DHT22;56269;51.738;21.652;2023-02-19T02:10:37;1.97;95.49
69162;DHT22;56269;51.738;21.652;2023-02-19T02:13:04;2.09;94.99
69162;DHT22;56269;51.738;21.652;2023-02-19T02:15:43;2.07;95.00
69162;DHT22;56269;51.738;21.652;2023-02-19T02:18:51;2.11;94.81
69162;DHT22;56269;51.738;21.652;2023-02-19T02:24:10;2.17;95.01
69162;DHT22;56269;51.738;21.652;2023-02-19T02:29:47;2.16;94.97
69162;DHT22;56269;51.738;21.652;2023-02-19T02:32:24;2.13;95.11
69162;DHT22;56269;51.738;21.652;2023-02-19T02:34:56;2.18;94.99
69162;DHT22;56269;51.738;21.652;2023-02-19T02:37:23;2.17;94.69
69162;DHT22;56269;51.738;21.652;2023-02-19T02:39:51;2.18;94.55
69162;DHT22;56269;51.738;21.652;2023-02-19T02:42:18;2.28;93.50
69162;DHT22;56269;51.738;21.652;2023-02-19T02:44:55;2.27;93.53
69162;DHT22;56269;51.738;21.652;2023-02-19T02:47:52;2.21;93.75
69162;DHT22;56269;51.738;21.652;2023-02-19T02:50:25;2.24;93.61
69162;DHT22;56269;51.738;21.652;2023-02-19T02:52:58;2.24;93.48
69162;DHT22;56269;51.738;21.652;2023-02-19T02:55:47;2.21;93.53
69162;DHT22;56269;51.738;21.652;2023-02-19T02:58:14;2.23;93.66
69162;DHT22;56269;51.738;21.652;2023-02-19T03:00:44;2.23;93.76
69162;DHT22;56269;51.738;21.652;2023-02-19T03:03:31;2.18;93.55
69162;DHT22;56269;51.738;21.652;2023-02-19T03:06:03;2.18;93.80
69162;DHT22;56269;51.738;21.652;2023-02-19T03:08:48;2.17;93.50
69162;DHT22;56269;51.738;21.652;2023-02-19T03:11:16;2.20;92.57
69162;DHT22;56269;51.738;21.652;2023-02-19T03:14:15;2.18;93.06
69162;DHT22;56269;51.738;21.652;2023-02-19T03:17:19;2.17;92.91
69162;DHT22;56269;51.738;21.652;2023-02-19T03:20:09;2.17;92.94
69162;DHT22;56269;51.738;21.652;2023-02-19T03:22:37;2.20;92.16
69162;DHT22;56269;51.738;21.652;2023-02-19T03:25:10;2.20;92.20
69162;DHT22;56269;51.738;21.652;2023-02-19T03:27:57;2.14;92.79
69162;DHT22;56269;51.738;21.652;2023-02-19T03:30:30;2.11;92.42
69162;DHT22;56269;51.738;21.652;2023-02-19T03:33:07;2.07;92.88
69162;DHT22;56269;51.738;21.652;2023-02-19T03:35:44;2.07;92.54
69162;DHT22;56269;51.738;21.652;2023-02-19T03:38:15;2.13;92.17
69162;DHT22;56269;51.738;21.652;2023-02-19T03:40:58;2.13;92.22
69162;DHT22;56269;51.738;21.652;2023-02-19T03:43:44;2.13;92.52
69162;DHT22;56269;51.738;21.652;2023-02-19T03:46:17;2.11;92.58
69162;DHT22;56269;51.738;21.652;2023-02-19T03:48:58;2.13;92.08
69162;DHT22;56269;51.738;21.652;2023-02-19T03:56:51;2.07;93.10
69162;DHT22;56269;51.738;21.652;2023-02-19T03:59:50;2.09;92.85
69162;DHT22;56269;51.738;21.652;2023-02-19T04:02:26;2.05;93.26
69162;DHT22;56269;51.738;21.652;2023-02-19T04:05:04;2.10;92.89
69162;DHT22;56269;51.738;21.652;2023-02-19T04:07:35;2.09;92.66
69162;DHT22;56269;51.738;21.652;2023-02-19T04:10:05;2.09;92.97
69162;DHT22;56269;51.738;21.652;2023-02-19T04:12:35;2.05;93.42
69162;DHT22;56269;51.738;21.652;2023-02-19T04:15:06;2.05;93.28
69162;DHT22;56269;51.738;21.652;2023-02-19T04:17:38;2.05;93.29
69162;DHT22;56269;51.738;21.652;2023-02-19T04:20:08;2.06;93.01
69162;DHT22;56269;51.738;21.652;2023-02-19T04:22:36;2.03;93.50
69162;DHT22;56269;51.738;21.652;2023-02-19T04:25:04;2.03;93.29
69162;DHT22;56269;51.738;21.652;2023-02-19T04:27:31;2.07;92.97
69162;DHT22;56269;51.738;21.652;2023-02-19T04:29:58;2.02;94.05
69162;DHT22;56269;51.738;21.652;2023-02-19T04:32:24;2.02;93.14
69162;DHT22;56269;51.738;21.652;2023-02-19T04:34:50;2.07;92.31
69162;DHT22;56269;51.738;21.652;2023-02-19T04:37:16;2.02;92.84
69162;DHT22;56269;51.738;21.652;2023-02-19T04:39:43;2.00;92.79
69162;DHT22;56269;51.738;21.652;2023-02-19T04:42:09;2.00;92.85
69162;DHT22;56269;51.738;21.652;2023-02-19T04:44:36;2.07;92.23
69162;DHT22;56269;51.738;21.652;2023-02-19T04:47:02;2.07;91.81
69162;DHT22;56269;51.738;21.652;2023-02-19T04:49:28;2.00;92.30
69162;DHT22;56269;51.738;21.652;2023-02-19T04:51:54;2.05;91.17
69162;DHT22;56269;51.738;21.652;2023-02-19T04:54:21;2.00;91.60
69162;DHT22;56269;51.738;21.652;2023-02-19T04:56:47;2.07;90.70
69162;DHT22;56269;51.738;21.652;2023-02-19T04:59:18;2.06;90.32
69162;DHT22;56269;51.738;21.652;2023-02-19T05:01:45;2.11;89.32
69162;DHT22;56269;51.738;21.652;2023-02-19T05:04:11;2.11;90.18
69162;DHT22;56269;51.738;21.652;2023-02-19T05:06:37;2.10;89.54
69162;DHT22;56269;51.738;21.652;2023-02-19T05:09:04;2.09;89.17
69162;DHT22;56269;51.738;21.652;2023-02-19T05:11:30;2.07;89.39
69162;DHT22;56269;51.738;21.652;2023-02-19T05:13:56;2.11;88.59
69162;DHT22;56269;51.738;21.652;2023-02-19T05:16:22;2.11;88.56
69162;DHT22;56269;51.738;21.652;2023-02-19T05:18:49;2.16;88.57
69162;DHT22;56269;51.738;21.652;2023-02-19T05:21:15;2.11;88.29
69162;DHT22;56269;51.738;21.652;2023-02-19T05:23:42;2.11;88.39
69162;DHT22;56269;51.738;21.652;2023-02-19T05:26:20;2.10;88.42
69162;DHT22;56269;51.738;21.652;2023-02-19T05:28:49;2.14;87.95
69162;DHT22;56269;51.738;21.652;2023-02-19T05:31:16;2.17;87.58
69162;DHT22;56269;51.738;21.652;2023-02-19T05:33:43;2.16;87.86
69162;DHT22;56269;51.738;21.652;2023-02-19T05:36:13;2.17;87.53
69162;DHT22;56269;51.738;21.652;2023-02-19T05:38:40;2.20;87.12
69162;DHT22;56269;51.738;21.652;2023-02-19T05:41:17;2.20;87.48
69162;DHT22;56269;51.738;21.652;2023-02-19T05:43:45;2.16;87.79
69162;DHT22;56269;51.738;21.652;2023-02-19T05:46:14;2.11;88.15
69162;DHT22;56269;51.738;21.652;2023-02-19T05:48:41;2.14;87.78
69162;DHT22;56269;51.738;21.652;2023-02-19T05:51:09;2.06;89.05
69162;DHT22;56269;51.738;21.652;2023-02-19T05:53:37;2.14;87.50
69162;DHT22;56269;51.738;21.652;2023-02-19T05:56:04;2.17;87.74
69162;DHT22;56269;51.738;21.652;2023-02-19T05:58:42;2.16;87.90
69162;DHT22;56269;51.738;21.652;2023-02-19T06:01:15;2.18;87.89
69162;DHT22;56269;51.738;21.652;2023-02-19T06:03:42;2.18;87.84
69162;DHT22;56269;51.738;21.652;2023-02-19T06:06:11;2.20;87.64
69162;DHT22;56269;51.738;21.652;2023-02-19T06:08:38;2.16;88.27
69162;DHT22;56269;51.738;21.652;2023-02-19T06:11:04;2.17;88.27
69162;DHT22;56269;51.738;21.652;2023-02-19T06:13:31;2.16;89.37
69162;DHT22;56269;51.738;21.652;2023-02-19T06:15:57;2.14;87.88
69162;DHT22;56269;51.738;21.652;2023-02-19T06:18:25;2.13;88.87
69162;DHT22;56269;51.738;21.652;2023-02-19T06:20:52;2.10;88.95
69162;DHT22;56269;51.738;21.652;2023-02-19T06:23:18;2.11;89.43
69162;DHT22;56269;51.738;21.652;2023-02-19T06:25:45;2.09;90.45
69162;DHT22;56269;51.738;21.652;2023-02-19T06:28:11;2.05;90.28
69162;DHT22;56269;51.738;21.652;2023-02-19T06:30:37;2.10;90.36
69162;DHT22;56269;51.738;21.652;2023-02-19T06:33:03;2.10;90.44
69162;DHT22;56269;51.738;21.652;2023-02-19T06:35:29;2.16;90.70
69162;DHT22;56269;51.738;21.652;2023-02-19T06:37:56;2.16;91.74
69162;DHT22;56269;51.738;21.652;2023-02-19T06:40:22;2.17;91.51
69162;DHT22;56269;51.738;21.652;2023-02-19T06:42:48;2.17;91.62
69162;DHT22;56269;51.738;21.652;2023-02-19T06:45:14;2.18;91.85
69162;DHT22;56269;51.738;21.652;2023-02-19T06:47:41;2.24;91.54
69162;DHT22;56269;51.738;21.652;2023-02-19T06:50:07;2.27;91.97
69162;DHT22;56269;51.738;21.652;2023-02-19T06:52:33;2.30;92.39
69162;DHT22;56269;51.738;21.652;2023-02-19T06:54:59;2.31;91.65
69162;DHT22;56269;51.738;21.652;2023-02-19T06:57:26;2.33;92.05
69162;DHT22;56269;51.738;21.652;2023-02-19T06:59:52;2.37;91.88
69162;DHT22;56269;51.738;21.652;2023-02-19T07:02:18;2.45;91.52
69162;DHT22;56269;51.738;21.652;2023-02-19T07:04:44;2.47;92.18
69162;DHT22;56269;51.738;21.652;2023-02-19T07:07:11;2.49;92.34
69162;DHT22;56269;51.738;21.652;2023-02-19T07:09:37;2.59;91.30
69162;DHT22;56269;51.738;21.652;2023-02-19T07:12:04;2.65;91.62
69162;DHT22;56269;51.738;21.652;2023-02-19T07:14:30;2.75;90.87
69162;DHT22;56269;51.738;21.652;2023-02-19T07:16:56;2.84;91.71
69162;DHT22;56269;51.738;21.652;2023-02-19T07:19:22;2.85;90.41
69162;DHT22;56269;51.738;21.652;2023-02-19T07:21:49;2.88;91.11
69162;DHT22;56269;51.738;21.652;2023-02-19T07:24:15;2.81;90.77
69162;DHT22;56269;51.738;21.652;2023-02-19T07:26:41;2.74;90.54
69162;DHT22;56269;51.738;21.652;2023-02-19T07:29:08;2.75;90.97
69162;DHT22;56269;51.738;21.652;2023-02-19T07:31:35;2.66;90.71
69162;DHT22;56269;51.738;21.652;2023-02-19T07:34:01;2.65;91.57
69162;DHT22;56269;51.738;21.652;2023-02-19T07:36:27;2.64;90.39
69162;DHT22;56269;51.738;21.652;2023-02-19T07:38:57;2.66;90.10
69162;DHT22;56269;51.738;21.652;2023-02-19T07:41:24;2.69;90.88
69162;DHT22;56269;51.738;21.652;2023-02-19T07:43:51;2.68;90.40
69162;DHT22;56269;51.738;21.652;2023-02-19T07:46:21;2.71;90.32
69162;DHT22;56269;51.738;21.652;2023-02-19T07:48:47;2.69;90.82
69162;DHT22;56269;51.738;21.652;2023-02-19T07:51:17;2.72;90.35
69162;DHT22;56269;51.738;21.652;2023-02-19T07:53:47;2.78;90.71
69162;DHT22;56269;51.738;21.652;2023-02-19T07:56:16;2.79;90.36
69162;DHT22;56269;51.738;21.652;2023-02-19T07:58:42;2.81;91.64
69162;DHT22;56269;51.738;21.652;2023-02-19T08:01:20;2.91;89.89
69162;DHT22;56269;51.738;21.652;2023-02-19T08:04:05;2.98;89.39
69162;DHT22;56269;51.738;21.652;2023-02-19T08:06:31;2.96;89.64
69162;DHT22;56269;51.738;21.652;2023-02-19T08:08:57;3.03;90.36
69162;DHT22;56269;51.738;21.652;2023-02-19T08:11:24;3.02;88.96
69162;DHT22;56269;51.738;21.652;2023-02-19T08:14:08;3.00;89.24
69162;DHT22;56269;51.738;21.652;2023-02-19T08:16:35;3.00;89.77
69162;DHT22;56269;51.738;21.652;2023-02-19T08:19:01;2.93;89.18
69162;DHT22;56269;51.738;21.652;2023-02-19T08:21:27;3.03;89.63
69162;DHT22;56269;51.738;21.652;2023-02-19T08:23:53;2.89;89.06
69162;DHT22;56269;51.738;21.652;2023-02-19T08:26:20;2.88;89.10
69162;DHT22;56269;51.738;21.652;2023-02-19T08:28:47;2.88;89.35
69162;DHT22;56269;51.738;21.652;2023-02-19T08:31:13;2.91;90.21
69162;DHT22;56269;51.738;21.652;2023-02-19T08:33:39;2.95;89.79
69162;DHT22;56269;51.738;21.652;2023-02-19T08:36:07;3.00;89.71
69162;DHT22;56269;51.738;21.652;2023-02-19T08:38:35;3.08;90.42
69162;DHT22;56269;51.738;21.652;2023-02-19T08:41:06;3.12;88.99
69162;DHT22;56269;51.738;21.652;2023-02-19T08:43:32;3.13;88.55
69162;DHT22;56269;51.738;21.652;2023-02-19T08:46:17;3.18;89.34
69162;DHT22;56269;51.738;21.652;2023-02-19T08:48:43;3.19;88.52
69162;DHT22;56269;51.738;21.652;2023-02-19T08:51:10;3.13;88.23
69162;DHT22;56269;51.738;21.652;2023-02-19T08:53:39;3.23;88.87
69162;DHT22;56269;51.738;21.652;2023-02-19T08:56:07;3.22;87.84
69162;DHT22;56269;51.738;21.652;2023-02-19T08:58:34;3.30;87.67
69162;DHT22;56269;51.738;21.652;2023-02-19T09:01:01;3.33;88.17
69162;DHT22;56269;51.738;21.652;2023-02-19T09:03:27;3.29;87.76
69162;DHT22;56269;51.738;21.652;2023-02-19T09:05:53;3.50;88.12
69162;DHT22;56269;51.738;21.652;2023-02-19T09:08:19;3.57;87.84
69162;DHT22;56269;51.738;21.652;2023-02-19T09:10:59;3.50;88.01
69162;DHT22;56269;51.738;21.652;2023-02-19T09:13:26;3.27;87.08
69162;DHT22;56269;51.738;21.652;2023-02-19T09:15:52;3.27;87.36
69162;DHT22;56269;51.738;21.652;2023-02-19T09:18:18;3.46;88.00
69162;DHT22;56269;51.738;21.652;2023-02-19T09:20:45;3.54;86.79
69162;DHT22;56269;51.738;21.652;2023-02-19T09:23:11;3.97;87.26
69162;DHT22;56269;51.738;21.652;2023-02-19T09:25:37;3.85;86.25
69162;DHT22;56269;51.738;21.652;2023-02-19T09:28:03;3.71;85.94
69162;DHT22;56269;51.738;21.652;2023-02-19T09:30:30;3.88;86.48
69162;DHT22;56269;51.738;21.652;2023-02-19T09:32:56;3.91;85.50
69162;DHT22;56269;51.738;21.652;2023-02-19T09:35:22;3.84;85.53
69162;DHT22;56269;51.738;21.652;2023-02-19T09:37:48;3.95;86.65
69162;DHT22;56269;51.738;21.652;2023-02-19T09:40:15;4.15;84.52
69162;DHT22;56269;51.738;21.652;2023-02-19T09:42:47;4.22;84.43
69162;DHT22;56269;51.738;21.652;2023-02-19T09:45:20;4.09;83.74
69162;DHT22;56269;51.738;21.652;2023-02-19T09:47:49;4.15;83.73
69162;DHT22;56269;51.738;21.652;2023-02-19T09:50:20;4.05;84.44
69162;DHT22;56269;51.738;21.652;2023-02-19T09:52:56;4.01;85.44
69162;DHT22;56269;51.738;21.652;2023-02-19T09:55:33;4.09;85.28
69162;DHT22;56269;51.738;21.652;2023-02-19T10:00:50;4.14;84.08
69162;DHT22;56269;51.738;21.652;2023-02-19T10:03:37;3.85;84.91
69162;DHT22;56269;51.738;21.652;2023-02-19T10:08:46;3.71;84.08
69162;DHT22;56269;51.738;21.652;2023-02-19T10:11:14;3.73;84.43
69162;DHT22;56269;51.738;21.652;2023-02-19T10:14:04;3.80;85.59
69162;DHT22;56269;51.738;21.652;2023-02-19T10:16:38;3.85;83.83
69162;DHT22;56269;51.738;21.652;2023-02-19T10:19:13;3.84;83.67
69162;DHT22;56269;51.738;21.652;2023-02-19T10:21:40;3.95;83.75
69162;DHT22;56269;51.738;21.652;2023-02-19T10:24:14;3.99;83.90
69162;DHT22;56269;51.738;21.652;2023-02-19T10:26:43;3.92;83.18
69162;DHT22;56269;51.738;21.652;2023-02-19T10:29:09;3.95;82.86
69162;DHT22;56269;51.738;21.652;2023-02-19T10:31:36;4.06;83.04
69162;DHT22;56269;51.738;21.652;2023-02-19T10:34:02;4.23;83.01
69162;DHT22;56269;51.738;21.652;2023-02-19T10:36:35;4.02;82.21
69162;DHT22;56269;51.738;21.652;2023-02-19T10:39:51;4.18;81.83
69162;DHT22;56269;51.738;21.652;2023-02-19T10:41:55;4.12;82.78
69162;DHT22;56269;51.738;21.652;2023-02-19T10:44:27;4.12;81.96
69162;DHT22;56269;51.738;21.652;2023-02-19T10:46:58;4.33;83.05
69162;DHT22;56269;51.738;21.652;2023-02-19T10:49:39;4.41;81.70
69162;DHT22;56269;51.738;21.652;2023-02-19T10:52:22;4.50;80.86
69162;DHT22;56269;51.738;21.652;2023-02-19T10:55:14;4.39;81.25
69162;DHT22;56269;51.738;21.652;2023-02-19T10:57:41;4.42;80.53
69162;DHT22;56269;51.738;21.652;2023-02-19T11:00:26;4.62;81.81
69162;DHT22;56269;51.738;21.652;2023-02-19T11:06:15;4.50;80.40
69162;DHT22;56269;51.738;21.652;2023-02-19T11:08:46;4.45;80.46
69162;DHT22;56269;51.738;21.652;2023-02-19T11:11:33;4.12;80.35
69162;DHT22;56269;51.738;21.652;2023-02-19T11:14:04;4.01;81.78
69162;DHT22;56269;51.738;21.652;2023-02-19T11:16:47;3.87;81.78
69162;DHT22;56269;51.738;21.652;2023-02-19T11:21:47;3.82;81.35
69162;DHT22;56269;51.738;21.652;2023-02-19T11:24:46;3.92;82.48
69162;DHT22;56269;51.738;21.652;2023-02-19T11:27:23;3.95;82.37
69162;DHT22;56269;51.738;21.652;2023-02-19T11:29:50;4.06;82.29
69162;DHT22;56269;51.738;21.652;2023-02-19T11:32:28;4.23;80.58
69162;DHT22;56269;51.738;21.652;2023-02-19T11:35:18;4.32;80.62
69162;DHT22;56269;51.738;21.652;2023-02-19T11:37:56;4.53;79.36
69162;DHT22;56269;51.738;21.652;2023-02-19T11:40:54;4.21;80.85
69162;DHT22;56269;51.738;21.652;2023-02-19T11:46:28;4.06;80.22
69162;DHT22;56269;51.738;21.652;2023-02-19T11:49:10;3.95;80.44
69162;DHT22;56269;51.738;21.652;2023-02-19T11:57:33;4.05;81.34
69162;DHT22;56269;51.738;21.652;2023-02-19T12:00:23;4.16;78.85
69162;DHT22;56269;51.738;21.652;2023-02-19T12:03:30;4.38;77.15
69162;DHT22;56269;51.738;21.652;2023-02-19T12:06:22;4.28;76.46
69162;DHT22;56269;51.738;21.652;2023-02-19T12:15:06;4.38;75.16
69162;DHT22;56269;51.738;21.652;2023-02-19T12:20:51;4.76;73.35
69162;DHT22;56269;51.738;21.652;2023-02-19T12:26:24;4.67;74.80
69162;DHT22;56269;51.738;21.652;2023-02-19T12:29:25;4.55;72.62
69162;DHT22;56269;51.738;21.652;2023-02-19T12:40:49;5.08;72.28
69162;DHT22;56269;51.738;21.652;2023-02-19T12:51:22;5.27;73.26
69162;DHT22;56269;51.738;21.652;2023-02-19T12:59:03;4.88;72.74
69162;DHT22;56269;51.738;21.652;2023-02-19T13:01:35;4.70;73.03
69162;DHT22;56269;51.738;21.652;2023-02-19T13:04:29;4.52;74.15
69162;DHT22;56269;51.738;21.652;2023-02-19T13:07:29;4.43;75.40
69162;DHT22;56269;51.738;21.652;2023-02-19T13:10:04;4.38;75.55
69162;DHT22;56269;51.738;21.652;2023-02-19T13:12:38;4.33;75.37
69162;DHT22;56269;51.738;21.652;2023-02-19T13:15:46;4.45;75.96
69162;DHT22;56269;51.738;21.652;2023-02-19T13:18:18;4.62;75.74
69162;DHT22;56269;51.738;21.652;2023-02-19T13:20:46;5.06;75.51
69162;DHT22;56269;51.738;21.652;2023-02-19T13:34:51;4.25;76.21
69162;DHT22;56269;51.738;21.652;2023-02-19T13:37:22;4.21;76.88
69162;DHT22;56269;51.738;21.652;2023-02-19T13:39:51;4.23;77.88
69162;DHT22;56269;51.738;21.652;2023-02-19T13:42:35;4.19;75.84
69162;DHT22;56269;51.738;21.652;2023-02-19T13:45:04;4.63;76.94
69162;DHT22;56269;51.738;21.652;2023-02-19T13:50:33;5.17;74.35
69162;DHT22;56269;51.738;21.652;2023-02-19T13:53:01;5.18;75.67
69162;DHT22;56269;51.738;21.652;2023-02-19T13:55:50;5.14;75.80
69162;DHT22;56269;51.738;21.652;2023-02-19T14:01:01;5.31;72.19
69162;DHT22;56269;51.738;21.652;2023-02-19T14:04:06;5.45;73.69
69162;DHT22;56269;51.738;21.652;2023-02-19T14:14:52;4.55;73.16
69162;DHT22;56269;51.738;21.652;2023-02-19T14:17:29;4.43;74.63
69162;DHT22;56269;51.738;21.652;2023-02-19T14:28:18;4.28;73.45
69162;DHT22;56269;51.738;21.652;2023-02-19T14:30:55;4.21;73.38
69162;DHT22;56269;51.738;21.652;2023-02-19T14:33:28;4.09;74.24
69162;DHT22;56269;51.738;21.652;2023-02-19T14:38:43;4.05;75.62
69162;DHT22;56269;51.738;21.652;2023-02-19T14:41:13;4.02;73.85
69162;DHT22;56269;51.738;21.652;2023-02-19T14:43:42;3.97;74.64
69162;DHT22;56269;51.738;21.652;2023-02-19T14:47:12;3.94;74.89
69162;DHT22;56269;51.738;21.652;2023-02-19T14:49:34;3.95;74.44
69162;DHT22;56269;51.738;21.652;2023-02-19T14:52:06;3.88;75.23
69162;DHT22;56269;51.738;21.652;2023-02-19T14:57:32;3.77;76.90
69162;DHT22;56269;51.738;21.652;2023-02-19T15:02:49;3.74;76.37
69162;DHT22;56269;51.738;21.652;2023-02-19T15:05:31;3.74;76.72
69162;DHT22;56269;51.738;21.652;2023-02-19T15:08:00;3.74;77.13
69162;DHT22;56269;51.738;21.652;2023-02-19T15:10:30;3.71;77.62
69162;DHT22;56269;51.738;21.652;2023-02-19T15:13:06;3.67;78.79
69162;DHT22;56269;51.738;21.652;2023-02-19T15:15:35;3.73;77.17
69162;DHT22;56269;51.738;21.652;2023-02-19T15:18:06;3.66;78.32
69162;DHT22;56269;51.738;21.652;2023-02-19T15:20:35;3.64;79.10
69162;DHT22;56269;51.738;21.652;2023-02-19T15:23:06;3.60;79.00
69162;DHT22;56269;51.738;21.652;2023-02-19T15:25:37;3.59;79.84
69162;DHT22;56269;51.738;21.652;2023-02-19T15:28:31;3.54;78.61
69162;DHT22;56269;51.738;21.652;2023-02-19T15:33:28;3.50;80.00
69162;DHT22;56269;51.738;21.652;2023-02-19T15:36:01;3.53;79.04
69162;DHT22;56269;51.738;21.652;2023-02-19T15:38:29;3.56;78.82
69162;DHT22;56269;51.738;21.652;2023-02-19T15:40:56;3.51;79.02
69162;DHT22;56269;51.738;21.652;2023-02-19T15:46:20;3.50;78.53
69162;DHT22;56269;51.738;21.652;2023-02-19T15:51:46;3.51;78.92
69162;DHT22;56269;51.738;21.652;2023-02-19T15:54:54;3.41;80.62
69162;DHT22;56269;51.738;21.652;2023-02-19T15:57:22;3.39;79.89
69162;DHT22;56269;51.738;21.652;2023-02-19T15:59:57;3.41;79.65
69162;DHT22;56269;51.738;21.652;2023-02-19T16:02:26;3.47;78.84
69162;DHT22;56269;51.738;21.652;2023-02-19T16:04:53;3.40;79.82
69162;DHT22;56269;51.738;21.652;2023-02-19T16:07:28;3.37;80.14
69162;DHT22;56269;51.738;21.652;2023-02-19T16:10:24;3.37;79.17
69162;DHT22;56269;51.738;21.652;2023-02-19T16:12:58;3.40;78.52
69162;DHT22;56269;51.738;21.652;2023-02-19T16:15:28;3.47;78.45
69162;DHT22;56269;51.738;21.652;2023-02-19T16:17:56;3.43;78.88
69162;DHT22;56269;51.738;21.652;2023-02-19T16:20:35;3.41;78.18
69162;DHT22;56269;51.738;21.652;2023-02-19T16:23:13;3.46;77.54
69162;DHT22;56269;51.738;21.652;2023-02-19T16:25:43;3.44;78.16
69162;DHT22;56269;51.738;21.652;2023-02-19T16:28:22;3.53;76.67
69162;DHT22;56269;51.738;21.652;2023-02-19T16:31:10;3.47;77.09
69162;DHT22;56269;51.738;21.652;2023-02-19T16:33:45;3.39;78.14
69162;DHT22;56269;51.738;21.652;2023-02-19T16:46:50;3.26;77.86
69162;DHT22;56269;51.738;21.652;2023-02-19T16:49:18;3.23;78.42
69162;DHT22;56269;51.738;21.652;2023-02-19T16:51:47;3.22;79.15
69162;DHT22;56269;51.738;21.652;2023-02-19T16:54:14;3.19;79.01
69162;DHT22;56269;51.738;21.652;2023-02-19T16:56:41;3.30;77.64
69162;DHT22;56269;51.738;21.652;2023-02-19T16:59:07;3.29;77.79
69162;DHT22;56269;51.738;21.652;2023-02-19T17:01:36;3.24;78.49
69162;DHT22;56269;51.738;21.652;2023-02-19T17:04:05;3.22;77.89
69162;DHT22;56269;51.738;21.652;2023-02-19T17:06:37;3.15;78.86
69162;DHT22;56269;51.738;21.652;2023-02-19T17:09:06;3.13;78.57
69162;DHT22;56269;51.738;21.652;2023-02-19T17:11:35;3.06;79.76
69162;DHT22;56269;51.738;21.652;2023-02-19T17:14:02;3.09;78.12
69162;DHT22;56269;51.738;21.652;2023-02-19T17:16:31;3.03;78.84
69162;DHT22;56269;51.738;21.652;2023-02-19T17:19:14;2.87;80.90
69162;DHT22;56269;51.738;21.652;2023-02-19T17:21:42;2.82;79.56
69162;DHT22;56269;51.738;21.652;2023-02-19T17:24:11;2.78;79.59
69162;DHT22;56269;51.738;21.652;2023-02-19T17:26:38;2.69;80.60
69162;DHT22;56269;51.738;21.652;2023-02-19T17:29:09;2.58;81.21
69162;DHT22;56269;51.738;21.652;2023-02-19T17:31:40;2.61;81.09
69162;DHT22;56269;51.738;21.652;2023-02-19T17:34:06;2.51;82.22
69162;DHT22;56269;51.738;21.652;2023-02-19T17:36:37;2.44;82.09
69162;DHT22;56269;51.738;21.652;2023-02-19T17:39:12;2.40;82.52
69162;DHT22;56269;51.738;21.652;2023-02-19T17:41:41;2.36;82.81
69162;DHT22;56269;51.738;21.652;2023-02-19T17:44:08;2.31;82.81
69162;DHT22;56269;51.738;21.652;2023-02-19T17:46:37;2.18;83.76
69162;DHT22;56269;51.738;21.652;2023-02-19T17:49:04;2.18;83.59
69162;DHT22;56269;51.738;21.652;2023-02-19T17:51:34;2.24;83.10
69162;DHT22;56269;51.738;21.652;2023-02-19T17:54:00;2.14;84.23
69162;DHT22;56269;51.738;21.652;2023-02-19T17:56:28;2.05;84.39
69162;DHT22;56269;51.738;21.652;2023-02-19T17:58:57;2.14;83.70
69162;DHT22;56269;51.738;21.652;2023-02-19T18:01:26;2.18;83.99
69162;DHT22;56269;51.738;21.652;2023-02-19T18:03:53;2.18;84.63
69162;DHT22;56269;51.738;21.652;2023-02-19T18:06:21;2.33;83.59
69162;DHT22;56269;51.738;21.652;2023-02-19T18:08:50;2.38;82.72
69162;DHT22;56269;51.738;21.652;2023-02-19T18:11:19;2.47;82.23